Time;durP1;ratioP1;P1;durP2;ratioP2;P2;SDS_P1;SDS_P2;PMS_P1;PMS_P2;Temp;Humidity;BMP_temperature;BMP_pressure;BME280_temperature;BME280_humidity;BME280_pressure;Samples;Min_cycle;Max_cycle;Signal;HPM_P1;HPM_P2
2021/12/14 00:01:17;;;;;;;5.10;4.70;;;8.40;94.70;;;;;;5012392;28;20045;-70
2021/12/14 00:03:47;;;;;;;4.70;4.30;;;8.40;94.70;;;;;;5014016;28;20054;-72
2021/12/14 00:06:16;;;;;;;5.13;4.72;;;8.40;94.70;;;;;;5009757;28;20065;-72
2021/12/14 00:08:52;;;;;;;5.05;4.65;;;8.30;94.60;;;;;;5003393;28;20050;-72
2021/12/14 00:11:33;;;;;;;5.00;4.60;;;8.40;94.70;;;;;;5003806;28;20049;-72
2021/12/14 00:14:24;;;;;;;5.57;5.13;;;8.30;94.60;;;;;;5004580;28;20062;-72
2021/12/14 00:16:56;;;;;;;5.32;4.93;;;8.30;94.70;;;;;;5006489;28;20144;-72
2021/12/14 00:19:23;;;;;;;5.72;5.22;;;8.30;94.70;;;;;;5005823;28;20073;-72
2021/12/14 00:21:53;;;;;;;5.22;4.82;;;8.30;94.70;;;;;;5004361;28;20064;-72
2021/12/14 00:24:26;;;;;;;5.47;5.00;;;8.30;94.70;;;;;;5003442;28;20521;-72
2021/12/14 00:26:56;;;;;;;5.15;4.75;;;8.30;94.70;;;;;;5002553;28;20054;-72
2021/12/14 00:29:28;;;;;;;5.03;4.53;;;8.30;94.70;;;;;;5003857;28;20053;-73
2021/12/14 00:31:57;;;;;;;5.28;4.88;;;8.30;94.70;;;;;;5000979;28;20057;-70
2021/12/14 00:34:36;;;;;;;5.53;5.13;;;8.30;94.70;;;;;;5002885;28;20221;-72
2021/12/14 00:37:03;;;;;;;5.90;5.40;;;8.30;94.70;;;;;;5004025;28;20049;-72
2021/12/14 00:39:30;;;;;;;5.78;5.28;;;8.30;94.70;;;;;;5003246;28;20053;-72
2021/12/14 00:41:57;;;;;;;5.57;5.18;;;8.30;94.80;;;;;;5003379;28;20506;-72
2021/12/14 00:44:26;;;;;;;5.28;4.88;;;8.30;94.80;;;;;;5004255;28;20060;-73
2021/12/14 00:46:53;;;;;;;6.07;5.57;;;8.30;94.70;;;;;;5002487;28;20062;-72
2021/12/14 00:49:20;;;;;;;5.65;5.25;;;8.30;94.80;;;;;;5002414;28;20145;-72
2021/12/14 00:51:47;;;;;;;6.07;5.57;;;8.30;94.80;;;;;;5003145;28;20053;-72
2021/12/14 00:54:16;;;;;;;6.50;6.00;;;8.20;94.80;;;;;;4997878;28;20084;-71
2021/12/14 00:56:44;;;;;;;6.40;5.88;;;8.20;94.80;;;;;;5004273;28;20065;-73
2021/12/14 00:59:12;;;;;;;6.72;6.13;;;8.20;94.80;;;;;;5002771;28;20058;-72
2021/12/14 01:01:46;;;;;;;6.70;6.20;;;8.20;94.80;;;;;;5002003;28;20049;-73
2021/12/14 01:04:16;;;;;;;6.40;5.90;;;8.20;94.80;;;;;;5004346;28;20046;-72
2021/12/14 01:06:46;;;;;;;6.50;6.00;;;8.20;94.80;;;;;;5004884;28;20524;-73
2021/12/14 01:09:15;;;;;;;6.22;5.72;;;8.20;94.80;;;;;;5000705;28;20566;-71
2021/12/14 01:11:46;;;;;;;6.30;5.80;;;8.20;94.80;;;;;;5002623;28;20046;-72
2021/12/14 01:14:17;;;;;;;6.22;5.75;;;8.20;94.80;;;;;;5004412;28;20049;-73
2021/12/14 01:16:54;;;;;;;6.50;5.90;;;8.20;94.80;;;;;;4998500;28;20116;-74
2021/12/14 01:19:26;;;;;;;6.70;6.10;;;8.20;94.80;;;;;;5003215;28;20053;-72
2021/12/14 01:22:32;;;;;;;6.90;6.30;;;8.20;94.80;;;;;;5003504;28;20050;-72
2021/12/14 01:25:07;;;;;;;6.63;6.03;;;8.20;94.80;;;;;;5001586;28;20086;-72
2021/12/14 01:27:43;;;;;;;7.38;6.68;;;8.20;94.80;;;;;;5001354;28;20399;-72
2021/12/14 01:30:17;;;;;;;7.70;7.00;;;8.20;94.90;;;;;;5001303;28;20056;-72
2021/12/14 01:32:49;;;;;;;7.03;6.43;;;8.20;94.90;;;;;;5001277;28;20050;-72
2021/12/14 01:35:20;;;;;;;6.93;6.38;;;8.20;94.90;;;;;;5003206;28;20060;-72
2021/12/14 01:38:01;;;;;;;7.18;6.57;;;8.10;94.80;;;;;;5003542;28;20054;-72
2021/12/14 01:40:53;;;;;;;7.18;6.53;;;8.10;94.80;;;;;;4999193;28;20161;-72
2021/12/14 01:43:19;;;;;;;6.82;6.22;;;8.10;94.80;;;;;;5002110;28;20600;-73
2021/12/14 01:45:46;;;;;;;7.38;6.68;;;8.10;94.80;;;;;;5001533;28;20053;-73
2021/12/14 01:48:14;;;;;;;7.45;6.80;;;8.10;94.80;;;;;;5003927;28;20054;-72
2021/12/14 01:50:43;;;;;;;7.68;7.03;;;8.10;94.80;;;;;;5000685;28;20540;-72
2021/12/14 01:53:13;;;;;;;7.90;7.20;;;8.10;94.90;;;;;;5002041;28;20054;-72
2021/12/14 01:55:43;;;;;;;7.85;7.15;;;8.10;94.90;;;;;;4998772;28;20426;-73
2021/12/14 01:58:12;;;;;;;7.93;7.22;;;8.10;94.90;;;;;;5003058;28;20128;-71
2021/12/14 02:00:42;;;;;;;7.90;7.20;;;8.10;94.90;;;;;;5000759;28;20585;-72
2021/12/14 02:03:11;;;;;;;8.20;7.43;;;8.10;94.90;;;;;;5002768;28;20065;-71
2021/12/14 02:05:42;;;;;;;9.20;8.30;;;8.10;94.90;;;;;;5002687;28;20050;-72
2021/12/14 02:08:16;;;;;;;9.23;8.32;;;8.10;95.00;;;;;;5000618;28;20049;-70
2021/12/14 02:10:43;;;;;;;8.68;7.88;;;8.00;94.90;;;;;;4996598;28;20061;-71
2021/12/14 02:13:11;;;;;;;9.00;8.20;;;8.10;95.00;;;;;;5003071;28;20057;-70
2021/12/14 02:15:41;;;;;;;9.02;8.23;;;8.10;95.00;;;;;;5000821;28;20054;-73
2021/12/14 02:18:11;;;;;;;8.95;8.15;;;8.00;94.90;;;;;;5001776;28;20042;-71
2021/12/14 02:20:45;;;;;;;10.43;9.43;;;8.00;94.90;;;;;;5002767;28;20156;-71
2021/12/14 02:23:11;;;;;;;10.00;9.05;;;8.00;94.90;;;;;;5000743;28;20049;-72
2021/12/14 02:25:39;;;;;;;9.95;9.05;;;8.00;94.90;;;;;;5002929;28;20065;-70
2021/12/14 02:28:11;;;;;;;10.38;9.38;;;8.00;95.00;;;;;;5001561;28;20077;-73
2021/12/14 02:30:40;;;;;;;10.15;9.15;;;8.00;95.00;;;;;;4999815;28;20060;-72
2021/12/14 02:33:13;;;;;;;10.93;9.82;;;8.00;95.00;;;;;;5002793;28;20733;-72
2021/12/14 02:35:40;;;;;;;10.65;9.68;;;8.00;95.00;;;;;;5001901;28;20046;-74
2021/12/14 02:38:11;;;;;;;10.70;9.60;;;8.00;95.00;;;;;;4996142;28;20068;-73
2021/12/14 02:40:58;;;;;;;11.45;10.35;;;8.00;95.00;;;;;;4999821;28;20057;-72
2021/12/14 02:43:29;;;;;;;11.10;10.10;;;8.00;95.00;;;;;;4996856;28;20050;-73
2021/12/14 02:46:05;;;;;;;11.20;10.10;;;8.00;95.00;;;;;;4999797;28;20072;-73
2021/12/14 02:48:32;;;;;;;12.20;11.00;;;8.00;95.00;;;;;;5003353;28;20449;-72
2021/12/14 02:51:07;;;;;;;11.75;10.65;;;8.00;95.00;;;;;;4998437;28;20057;-73
2021/12/14 02:53:36;;;;;;;11.90;10.80;;;8.00;95.00;;;;;;4994902;28;20161;-72
2021/12/14 02:56:09;;;;;;;12.20;11.00;;;7.90;95.00;;;;;;5001853;28;20060;-72
2021/12/14 02:58:36;;;;;;;12.13;10.82;;;8.00;95.40;;;;;;5002031;28;20050;-72
2021/12/14 03:01:03;;;;;;;12.88;11.65;;;7.90;95.00;;;;;;5001510;28;20053;-73
2021/12/14 03:03:30;;;;;;;12.55;11.25;;;7.90;95.00;;;;;;5001322;28;20061;-73
2021/12/14 03:05:59;;;;;;;12.73;11.43;;;7.90;95.00;;;;;;5002411;28;20045;-73
2021/12/14 03:08:28;;;;;;;13.23;11.82;;;7.90;95.00;;;;;;5001127;28;20477;-73
2021/12/14 03:11:09;;;;;;;12.85;11.48;;;7.90;95.00;;;;;;4998740;28;20060;-73
2021/12/14 03:13:38;;;;;;;13.27;11.88;;;7.90;95.00;;;;;;5000635;28;20056;-73
2021/12/14 03:16:07;;;;;;;12.93;11.63;;;7.90;95.10;;;;;;5001602;28;20046;-71
2021/12/14 03:18:36;;;;;;;14.02;12.32;;;7.90;95.00;;;;;;5003020;28;20057;-72
2021/12/14 03:21:07;;;;;;;12.85;11.55;;;7.90;95.10;;;;;;5002503;28;20049;-74
2021/12/14 03:23:39;;;;;;;12.68;11.38;;;7.90;95.10;;;;;;5002366;28;20063;-71
2021/12/14 03:26:10;;;;;;;13.55;12.07;;;7.90;95.10;;;;;;4999663;28;20046;-72
2021/12/14 03:28:38;;;;;;;14.93;12.93;;;7.90;95.10;;;;;;4997875;28;20076;-73
2021/12/14 03:31:19;;;;;;;14.13;12.63;;;7.90;95.10;;;;;;5007989;28;20538;-72
2021/12/14 03:33:50;;;;;;;13.45;12.05;;;7.90;95.10;;;;;;5005031;28;20064;-72
2021/12/14 03:36:23;;;;;;;13.15;11.82;;;7.80;95.10;;;;;;5007674;28;20050;-73
2021/12/14 03:38:53;;;;;;;15.00;13.40;;;7.80;95.10;;;;;;5003090;28;20045;-72
2021/12/14 03:41:24;;;;;;;13.88;12.48;;;7.80;95.00;;;;;;5004255;28;20049;-73
2021/12/14 03:43:57;;;;;;;13.73;12.32;;;7.80;95.10;;;;;;5005591;28;20054;-72
2021/12/14 03:46:25;;;;;;;14.70;13.02;;;7.80;95.10;;;;;;5004497;28;20053;-73
2021/12/14 03:48:52;;;;;;;14.63;12.95;;;7.80;95.10;;;;;;5004986;28;20473;-73
2021/12/14 03:51:21;;;;;;;14.55;13.00;;;7.80;95.10;;;;;;5003567;28;20062;-72
2021/12/14 03:53:49;;;;;;;15.00;13.07;;;7.80;95.10;;;;;;4997210;28;20502;-73
2021/12/14 03:56:16;;;;;;;15.38;13.25;;;7.80;95.10;;;;;;5004393;28;20053;-70
2021/12/14 03:58:45;;;;;;;14.95;12.52;;;7.80;95.10;;;;;;5005023;28;20553;-73
2021/12/14 04:01:15;;;;;;;15.05;13.40;;;7.80;95.10;;;;;;5004539;28;20061;-72
2021/12/14 04:03:43;;;;;;;16.02;13.73;;;7.80;95.10;;;;;;5004281;28;20421;-72
2021/12/14 04:06:12;;;;;;;15.73;14.02;;;7.80;95.10;;;;;;5007309;28;20084;-72
2021/12/14 04:08:39;;;;;;;15.52;13.50;;;7.80;95.10;;;;;;5004469;28;20789;-72
2021/12/14 04:11:09;;;;;;;16.55;14.40;;;7.80;95.10;;;;;;5004737;28;20056;-73
2021/12/14 04:13:40;;;;;;;15.90;13.63;;;7.80;95.10;;;;;;5004506;28;20068;-71
2021/12/14 04:16:11;;;;;;;16.88;14.77;;;7.80;95.20;;;;;;4999216;28;20045;-74
2021/12/14 04:18:38;;;;;;;17.00;14.55;;;7.80;95.20;;;;;;5005621;28;20089;-73
2021/12/14 04:21:05;;;;;;;17.02;14.80;;;7.70;95.10;;;;;;5004944;28;20061;-72
2021/12/14 04:23:36;;;;;;;16.58;14.00;;;7.70;95.10;;;;;;5003779;28;20080;-73
2021/12/14 04:26:07;;;;;;;17.23;14.52;;;7.70;95.10;;;;;;5004532;28;20100;-73
2021/12/14 04:28:38;;;;;;;16.83;14.73;;;7.70;95.10;;;;;;5003545;28;20540;-72
2021/12/14 04:31:05;;;;;;;17.40;14.98;;;7.80;95.20;;;;;;5001350;28;20057;-72
2021/12/14 04:33:37;;;;;;;17.88;15.43;;;7.70;95.10;;;;;;5004746;28;20054;-73
2021/12/14 04:36:07;;;;;;;18.48;15.75;;;7.70;95.10;;;;;;5004416;28;20574;-72
2021/12/14 04:38:43;;;;;;;17.85;15.52;;;7.70;95.10;;;;;;5005050;28;20658;-72
2021/12/14 04:52:22;;;;;;;19.10;16.45;;;7.70;95.20;;;;;;5001940;28;20061;-72
2021/12/14 04:54:50;;;;;;;18.88;16.35;;;7.70;95.50;;;;;;5000016;28;20132;-72
2021/12/14 04:57:22;;;;;;;19.33;15.60;;;7.70;95.20;;;;;;5003673;28;20054;-72
2021/12/14 04:59:50;;;;;;;18.17;15.68;;;7.70;95.20;;;;;;5003536;28;20092;-72
2021/12/14 05:02:20;;;;;;;19.08;17.05;;;7.60;95.20;;;;;;5000850;28;20056;-72
2021/12/14 05:04:50;;;;;;;19.75;15.95;;;7.60;95.20;;;;;;5004340;28;20065;-73
2021/12/14 05:07:44;;;;;;;21.63;16.88;;;7.60;95.20;;;;;;5003839;28;20050;-72
2021/12/14 05:10:16;;;;;;;20.45;15.88;;;7.70;95.20;;;;;;4998885;28;20480;-72
2021/12/14 05:12:43;;;;;;;20.05;16.35;;;7.60;95.20;;;;;;4998191;28;20046;-72
2021/12/14 05:15:13;;;;;;;21.33;17.42;;;7.70;95.20;;;;;;5000083;28;20053;-72
2021/12/14 05:17:41;;;;;;;19.55;17.17;;;7.60;95.20;;;;;;5004102;28;20057;-71
2021/12/14 05:20:14;;;;;;;21.25;17.38;;;7.60;95.20;;;;;;5002827;28;20057;-71
2021/12/14 05:22:44;;;;;;;23.80;18.23;;;7.60;95.20;;;;;;4999040;28;20058;-72
2021/12/14 05:25:25;;;;;;;22.02;17.13;;;7.60;95.50;;;;;;5001361;28;20054;-74
2021/12/14 05:27:56;;;;;;;20.75;16.73;;;7.60;95.20;;;;;;5001882;28;20069;-72
2021/12/14 05:30:27;;;;;;;23.00;18.27;;;7.60;95.20;;;;;;4998037;28;20105;-72
2021/12/14 05:32:58;;;;;;;21.20;18.05;;;7.60;95.20;;;;;;5003378;28;20060;-73
2021/12/14 05:35:26;;;;;;;20.02;17.65;;;7.60;95.20;;;;;;5003215;28;20521;-72
2021/12/14 05:37:55;;;;;;;21.92;18.00;;;7.60;95.20;;;;;;5003915;28;20522;-73
2021/12/14 05:40:40;;;;;;;23.13;18.00;;;7.60;95.20;;;;;;4999728;28;20100;-72
2021/12/14 05:43:07;;;;;;;22.38;18.73;;;7.60;95.60;;;;;;5001130;28;20504;-72
2021/12/14 05:45:39;;;;;;;23.13;18.58;;;7.60;95.30;;;;;;5000456;28;20049;-72
2021/12/14 05:48:08;;;;;;;24.52;19.83;;;7.60;95.20;;;;;;5000976;28;20054;-72
2021/12/14 05:50:38;;;;;;;22.40;19.15;;;7.60;95.30;;;;;;5002067;28;20046;-72
2021/12/14 05:53:06;;;;;;;24.63;19.23;;;7.50;95.30;;;;;;4999128;28;20050;-74
2021/12/14 05:55:37;;;;;;;23.00;18.38;;;7.60;95.30;;;;;;4998582;28;20424;-72
2021/12/14 05:58:11;;;;;;;26.63;19.92;;;7.50;95.20;;;;;;5003190;28;20709;-73
2021/12/14 06:00:43;;;;;;;25.30;20.63;;;7.50;95.20;;;;;;4997170;28;20157;-72
2021/12/14 06:03:15;;;;;;;22.30;18.90;;;7.50;95.30;;;;;;5000619;28;20097;-71
2021/12/14 06:05:44;;;;;;;25.23;19.52;;;7.50;95.30;;;;;;5002960;28;20057;-72
2021/12/14 06:08:19;;;;;;;24.88;19.05;;;7.50;95.20;;;;;;5002573;28;20546;-74
2021/12/14 06:10:46;;;;;;;24.73;19.83;;;7.50;95.30;;;;;;4997075;28;20132;-72
2021/12/14 06:13:16;;;;;;;24.70;19.83;;;7.50;95.30;;;;;;5001764;28;20054;-72
2021/12/14 06:15:43;;;;;;;23.35;18.63;;;7.50;95.30;;;;;;5000063;28;20054;-73
2021/12/14 06:18:10;;;;;;;25.85;20.35;;;7.50;95.30;;;;;;5002749;28;20050;-73
2021/12/14 06:20:37;;;;;;;25.25;19.70;;;7.50;95.30;;;;;;4999073;28;20060;-71
2021/12/14 06:23:05;;;;;;;25.58;19.40;;;7.50;95.30;;;;;;5001405;28;20046;-72
2021/12/14 06:25:32;;;;;;;23.80;18.40;;;7.50;95.30;;;;;;4999917;28;20057;-73
2021/12/14 06:28:01;;;;;;;27.10;21.27;;;7.50;95.30;;;;;;5000646;28;20061;-73
2021/12/14 06:30:31;;;;;;;23.25;19.10;;;7.50;95.30;;;;;;4999158;28;20703;-72
2021/12/14 06:33:01;;;;;;;25.88;20.52;;;7.50;95.30;;;;;;4997272;28;21030;-74
2021/12/14 06:35:33;;;;;;;24.15;19.23;;;7.40;95.30;;;;;;5000459;28;20541;-73
2021/12/14 06:38:25;;;;;;;23.42;18.90;;;7.50;95.30;;;;;;4999059;28;20061;-72
2021/12/14 06:40:59;;;;;;;27.10;19.45;;;7.50;95.30;;;;;;5002302;28;20057;-73
2021/12/14 06:43:28;;;;;;;25.80;19.73;;;7.40;95.30;;;;;;4999971;28;20107;-67
2021/12/14 06:45:58;;;;;;;24.20;18.45;;;7.40;95.30;;;;;;4996867;28;20061;-67
2021/12/14 06:48:29;;;;;;;25.40;19.73;;;7.40;95.30;;;;;;4999168;28;20060;-67
2021/12/14 06:50:59;;;;;;;24.52;19.10;;;7.40;95.30;;;;;;5001096;28;20054;-68
2021/12/14 06:53:28;;;;;;;25.08;19.83;;;7.40;95.30;;;;;;4995649;28;20062;-67
2021/12/14 06:55:57;;;;;;;25.15;19.85;;;7.40;95.40;;;;;;4999091;28;20116;-67
2021/12/14 06:58:27;;;;;;;23.95;18.98;;;7.40;95.40;;;;;;4995290;28;20057;-67
2021/12/14 07:00:59;;;;;;;25.83;19.58;;;7.40;95.40;;;;;;5000963;28;20066;-67
2021/12/14 07:03:36;;;;;;;25.90;19.92;;;7.40;95.40;;;;;;5001448;28;20065;-67
2021/12/14 07:06:04;;;;;;;25.50;19.63;;;7.40;95.40;;;;;;5001937;28;20057;-67
2021/12/14 07:08:32;;;;;;;25.02;19.83;;;7.40;95.40;;;;;;5002502;28;20049;-67
2021/12/14 07:10:58;;;;;;;25.73;19.50;;;7.40;95.40;;;;;;5005085;28;20057;-66
2021/12/14 07:13:33;;;;;;;28.58;20.10;;;7.40;95.40;;;;;;5007770;28;20081;-67
2021/12/14 07:16:00;;;;;;;27.35;20.40;;;7.40;95.40;;;;;;5000866;28;20521;-68
2021/12/14 07:18:29;;;;;;;26.52;20.67;;;7.40;95.40;;;;;;5006203;28;20140;-67
2021/12/14 07:20:57;;;;;;;24.60;20.05;;;7.40;95.40;;;;;;5001637;28;20082;-68
2021/12/14 07:23:28;;;;;;;27.98;20.50;;;7.30;95.40;;;;;;5003256;28;20060;-74
2021/12/14 07:25:59;;;;;;;27.15;20.73;;;7.40;95.40;;;;;;5002829;28;20141;-73
2021/12/14 07:28:31;;;;;;;27.65;20.20;;;7.40;95.40;;;;;;5004769;28;20076;-73
2021/12/14 07:31:02;;;;;;;27.05;20.40;;;7.30;95.40;;;;;;5003117;28;20068;-73
2021/12/14 07:33:32;;;;;;;28.60;21.42;;;7.30;95.40;;;;;;5000513;28;20053;-73
2021/12/14 07:36:01;;;;;;;27.38;21.10;;;7.30;95.40;;;;;;5003454;28;20058;-72
2021/12/14 07:38:32;;;;;;;27.45;20.38;;;7.30;95.40;;;;;;5006075;28;20061;-73
2021/12/14 07:41:05;;;;;;;28.80;20.95;;;7.30;95.40;;;;;;5002851;28;20042;-73
2021/12/14 07:43:35;;;;;;;26.10;19.92;;;7.30;95.40;;;;;;5005264;28;20057;-73
2021/12/14 07:46:02;;;;;;;25.90;19.23;;;7.30;95.40;;;;;;5003649;28;20058;-73
2021/12/14 07:48:42;;;;;;;27.85;20.58;;;7.30;95.40;;;;;;5005807;28;20709;-73
2021/12/14 07:51:09;;;;;;;24.95;19.20;;;7.30;95.40;;;;;;5003805;28;20050;-73
2021/12/14 07:53:41;;;;;;;26.90;19.50;;;7.20;95.40;;;;;;4998991;28;20057;-73
2021/12/14 07:56:24;;;;;;;26.63;19.48;;;7.30;95.50;;;;;;5004183;28;20061;-73
2021/12/14 07:58:51;;;;;;;26.35;19.58;;;7.20;95.40;;;;;;5002313;28;20070;-73
2021/12/14 08:01:18;;;;;;;26.83;18.77;;;7.20;95.50;;;;;;5009327;28;20042;-73
2021/12/14 08:03:45;;;;;;;26.73;19.83;;;7.20;95.50;;;;;;5003030;28;20061;-73
2021/12/14 08:06:15;;;;;;;29.02;19.38;;;7.20;95.50;;;;;;5001238;28;20050;-73
2021/12/14 08:08:45;;;;;;;27.77;19.60;;;7.20;95.50;;;;;;5004003;28;20057;-74
2021/12/14 08:14:02;;;;;;;25.70;18.73;;;7.20;95.50;;;;;;4991312;28;20049;-72
2021/12/14 08:16:40;;;;;;;26.25;18.05;;;7.20;95.50;;;;;;5002971;28;20061;-73
2021/12/14 08:19:07;;;;;;;25.83;18.98;;;7.20;95.50;;;;;;5004750;28;20050;-74
2021/12/14 08:21:33;;;;;;;27.25;18.75;;;7.20;95.50;;;;;;4998540;28;20065;-74
2021/12/14 08:24:04;;;;;;;27.67;19.20;;;7.20;95.50;;;;;;5003181;28;20645;-73
2021/12/14 08:26:37;;;;;;;26.00;17.88;;;7.20;95.50;;;;;;5003149;28;20096;-74
2021/12/14 08:29:06;;;;;;;23.42;17.65;;;7.20;95.50;;;;;;5001350;28;20045;-74
2021/12/14 08:31:37;;;;;;;27.90;18.85;;;7.10;95.50;;;;;;4998854;28;20065;-73
2021/12/14 08:34:06;;;;;;;23.80;17.00;;;7.10;95.50;;;;;;5003340;28;20498;-73
2021/12/14 08:36:36;;;;;;;24.55;17.65;;;7.10;95.50;;;;;;5000289;28;20068;-72
2021/12/14 08:39:08;;;;;;;24.10;17.38;;;7.10;95.50;;;;;;4999808;28;20502;-73
2021/12/14 08:41:42;;;;;;;24.55;16.50;;;7.10;95.50;;;;;;5003045;28;20156;-73
2021/12/14 08:44:11;;;;;;;22.23;16.77;;;7.10;95.40;;;;;;5003808;28;20049;-74
2021/12/14 08:46:40;;;;;;;22.33;16.55;;;7.10;95.50;;;;;;4999699;28;20096;-73
2021/12/14 08:49:08;;;;;;;23.05;17.05;;;7.10;95.50;;;;;;5005032;28;20061;-73
2021/12/14 08:51:40;;;;;;;21.73;15.68;;;7.10;95.50;;;;;;5002346;28;20143;-73
2021/12/14 08:54:09;;;;;;;22.52;17.10;;;7.10;95.50;;;;;;5002579;28;20054;-74
2021/12/14 08:56:41;;;;;;;23.50;16.45;;;7.10;95.50;;;;;;5001987;28;20045;-74
2021/12/14 08:59:08;;;;;;;20.98;15.82;;;7.10;95.40;;;;;;5003486;28;20050;-74
2021/12/14 09:01:40;;;;;;;22.60;16.50;;;7.10;95.40;;;;;;4997777;28;20067;-74
2021/12/14 09:04:11;;;;;;;20.15;15.38;;;7.10;95.40;;;;;;5002874;28;20057;-73
2021/12/14 09:06:41;;;;;;;23.08;16.40;;;7.00;95.40;;;;;;5002874;28;20141;-74
2021/12/14 09:09:10;;;;;;;21.83;15.98;;;7.10;95.40;;;;;;4995381;28;20057;-76
2021/12/14 09:11:41;;;;;;;25.08;16.60;;;7.10;95.40;;;;;;5000330;28;20061;-74
2021/12/14 09:14:16;;;;;;;22.55;17.52;;;7.00;95.30;;;;;;5003935;28;20600;-74
2021/12/14 09:16:47;;;;;;;22.75;16.52;;;7.00;95.30;;;;;;4997997;28;20092;-74
2021/12/14 09:19:19;;;;;;;24.88;16.88;;;7.10;95.30;;;;;;5002368;28;20157;-74
2021/12/14 09:21:49;;;;;;;24.45;16.85;;;7.00;95.30;;;;;;4999359;28;20041;-73
2021/12/14 09:24:22;;;;;;;22.02;17.10;;;7.00;95.30;;;;;;5001114;28;20054;-74
2021/12/14 09:26:53;;;;;;;23.38;17.10;;;7.10;95.30;;;;;;5000979;28;20054;-74
2021/12/14 09:29:23;;;;;;;25.02;18.45;;;7.00;95.30;;;;;;5002080;28;20057;-73
2021/12/14 09:31:54;;;;;;;24.15;17.73;;;7.00;95.30;;;;;;4998459;28;20049;-74
2021/12/14 09:34:25;;;;;;;24.50;17.05;;;7.00;95.30;;;;;;5003346;28;20049;-73
2021/12/14 09:36:53;;;;;;;22.27;17.25;;;7.00;95.30;;;;;;5000836;28;20053;-73
2021/12/14 09:39:23;;;;;;;24.80;18.98;;;7.00;95.30;;;;;;5005107;28;20046;-73
2021/12/14 09:41:53;;;;;;;23.63;17.85;;;7.00;95.30;;;;;;5002511;28;20103;-74
2021/12/14 09:44:23;;;;;;;21.90;17.80;;;7.00;95.30;;;;;;4998635;28;20494;-74
2021/12/14 09:46:50;;;;;;;23.98;18.40;;;7.00;95.30;;;;;;4995746;28;20062;-73
2021/12/14 09:49:18;;;;;;;24.75;19.00;;;7.00;95.30;;;;;;4999153;28;20434;-74
2021/12/14 09:51:49;;;;;;;24.48;18.25;;;7.00;95.30;;;;;;4998911;28;20239;-74
2021/12/14 09:54:18;;;;;;;24.85;17.52;;;7.00;95.30;;;;;;5000753;28;20061;-74
2021/12/14 09:56:49;;;;;;;24.27;18.25;;;7.00;95.30;;;;;;5000452;28;20054;-74
2021/12/14 09:59:18;;;;;;;24.88;18.58;;;7.00;95.30;;;;;;5002607;28;20057;-75
2021/12/14 10:01:51;;;;;;;24.88;18.05;;;7.00;95.30;;;;;;4997094;28;20058;-75
2021/12/14 10:04:21;;;;;;;24.42;17.48;;;7.00;95.30;;;;;;4993933;28;20054;-74
2021/12/14 10:06:49;;;;;;;22.77;17.58;;;7.00;95.20;;;;;;5000106;28;20045;-75
2021/12/14 10:09:19;;;;;;;23.48;17.92;;;6.90;95.20;;;;;;4994091;28;20093;-75
2021/12/14 10:12:02;;;;;;;22.35;16.55;;;6.90;95.20;;;;;;4994147;28;20081;-73
2021/12/14 10:14:33;;;;;;;23.10;17.23;;;6.90;95.20;;;;;;4999038;28;20539;-74
2021/12/14 10:17:01;;;;;;;24.42;17.73;;;6.90;95.20;;;;;;4992576;28;20782;-74
2021/12/14 10:19:30;;;;;;;24.02;17.65;;;6.90;95.20;;;;;;5001535;28;20053;-75
2021/12/14 10:22:01;;;;;;;25.10;16.95;;;6.90;95.20;;;;;;5000989;28;20629;-75
2021/12/14 10:24:28;;;;;;;21.45;16.58;;;6.90;95.20;;;;;;5002878;28;20133;-75
2021/12/14 10:26:59;;;;;;;23.60;16.80;;;6.90;95.20;;;;;;5001387;28;20064;-76
2021/12/14 10:29:29;;;;;;;26.10;18.23;;;6.90;95.20;;;;;;5001637;28;20050;-74
2021/12/14 10:32:02;;;;;;;23.35;17.20;;;6.90;95.20;;;;;;5004050;28;20057;-76
2021/12/14 10:34:32;;;;;;;25.05;17.35;;;6.90;95.20;;;;;;4993085;28;20506;-75
2021/12/14 10:37:07;;;;;;;24.27;17.15;;;6.90;95.20;;;;;;4997983;28;20046;-75
2021/12/14 10:42:37;;;;;;;24.70;17.17;;;6.90;95.20;;;;;;4999916;28;20056;-75
2021/12/14 10:45:20;;;;;;;27.08;17.80;;;6.90;95.20;;;;;;4963261;28;20053;-76
2021/12/14 10:47:49;;;;;;;26.42;17.98;;;6.90;95.20;;;;;;4998837;28;20083;-74
2021/12/14 10:50:20;;;;;;;28.90;19.10;;;6.90;95.20;;;;;;5000908;28;20050;-74
2021/12/14 10:52:47;;;;;;;25.17;17.23;;;6.90;95.20;;;;;;5002677;28;20045;-76
2021/12/14 10:55:22;;;;;;;26.15;18.02;;;6.90;95.20;;;;;;5001669;28;20050;-75
2021/12/14 10:57:49;;;;;;;27.63;18.67;;;6.90;95.20;;;;;;5001324;28;20056;-75
2021/12/14 11:00:28;;;;;;;26.50;18.65;;;6.90;95.20;;;;;;5001724;28;20060;-75
2021/12/14 11:03:00;;;;;;;30.10;18.42;;;6.90;95.20;;;;;;5000639;28;20067;-75
2021/12/14 11:05:28;;;;;;;27.33;18.70;;;6.90;95.20;;;;;;5002252;28;20056;-75
2021/12/14 11:07:55;;;;;;;26.52;18.92;;;6.90;95.20;;;;;;4999902;28;20065;-76
2021/12/14 11:10:25;;;;;;;28.40;20.15;;;6.90;95.20;;;;;;5002043;28;20060;-76
2021/12/14 11:12:56;;;;;;;28.63;19.23;;;6.90;95.20;;;;;;5000782;28;20046;-76
2021/12/14 11:15:27;;;;;;;28.85;20.25;;;6.90;95.20;;;;;;4998614;28;20050;-68
2021/12/14 11:18:11;;;;;;;27.08;19.70;;;6.90;95.20;;;;;;5002308;28;20064;-68
2021/12/14 11:20:43;;;;;;;32.15;20.33;;;6.90;95.10;;;;;;4998430;28;20226;-68
2021/12/14 11:23:13;;;;;;;30.95;20.60;;;6.90;95.10;;;;;;5001750;28;20060;-68
2021/12/14 11:25:47;;;;;;;28.90;20.55;;;6.90;95.10;;;;;;5003668;28;20053;-68
2021/12/14 11:28:19;;;;;;;30.40;19.95;;;6.90;95.10;;;;;;4998595;28;20050;-67
2021/12/14 11:30:49;;;;;;;32.53;20.80;;;6.90;95.10;;;;;;4998898;28;20062;-68
2021/12/14 11:33:25;;;;;;;33.47;21.65;;;6.90;95.10;;;;;;5001300;28;20575;-68
2021/12/14 11:35:56;;;;;;;31.05;20.50;;;6.90;95.20;;;;;;5002150;28;20419;-68
2021/12/14 11:38:27;;;;;;;34.38;21.75;;;6.90;95.10;;;;;;5001409;28;20061;-68
2021/12/14 11:40:54;;;;;;;31.48;20.85;;;6.90;95.40;;;;;;5000019;28;20056;-68
2021/12/14 11:43:25;;;;;;;30.73;20.90;;;6.90;95.10;;;;;;5000319;28;20053;-68
2021/12/14 11:45:52;;;;;;;33.53;21.92;;;6.90;95.20;;;;;;4998636;28;20057;-68
2021/12/14 11:48:31;;;;;;;30.92;20.92;;;6.90;95.10;;;;;;4999587;28;20162;-68
2021/12/14 11:51:01;;;;;;;31.48;21.75;;;6.90;95.10;;;;;;5001658;28;20045;-68
2021/12/14 11:53:28;;;;;;;32.88;22.05;;;6.90;95.10;;;;;;5004038;28;20050;-68
2021/12/14 11:55:58;;;;;;;31.92;21.52;;;6.90;95.10;;;;;;5005745;28;20057;-68
2021/12/14 11:58:33;;;;;;;31.50;21.42;;;6.90;95.10;;;;;;5005123;28;20065;-68
2021/12/14 12:01:07;;;;;;;34.03;22.23;;;6.90;95.10;;;;;;4996635;28;20137;-68
2021/12/14 12:03:40;;;;;;;31.30;22.42;;;6.90;95.10;;;;;;5005926;28;20054;-68
2021/12/14 12:06:25;;;;;;;31.92;22.05;;;6.90;95.10;;;;;;5005977;28;20418;-67
2021/12/14 12:11:45;;;;;;;31.20;21.77;;;6.90;95.10;;;;;;5006388;28;20080;-67
2021/12/14 12:14:25;;;;;;;33.10;21.90;;;6.90;95.10;;;;;;5003473;28;20049;-68
2021/12/14 12:16:56;;;;;;;33.25;22.48;;;6.90;95.10;;;;;;5002043;28;20049;-67
2021/12/14 12:19:26;;;;;;;35.30;23.45;;;6.90;95.10;;;;;;5003185;28;20058;-67
2021/12/14 12:21:53;;;;;;;35.42;24.10;;;6.90;95.10;;;;;;5004631;28;20534;-67
2021/12/14 12:24:44;;;;;;;31.98;22.48;;;6.90;95.10;;;;;;5003513;28;20061;-67
2021/12/14 12:27:30;;;;;;;33.00;23.33;;;6.90;95.00;;;;;;5000197;28;20070;-74
2021/12/14 12:30:41;;;;;;;32.70;23.30;;;6.90;95.00;;;;;;5002075;28;20736;-73
2021/12/14 12:33:22;;;;;;;35.00;23.52;;;6.90;95.10;;;;;;4999818;28;20065;-75
2021/12/14 12:35:54;;;;;;;33.40;23.88;;;6.90;95.00;;;;;;5002582;28;20076;-75
2021/12/14 12:38:33;;;;;;;33.70;23.67;;;6.90;95.00;;;;;;4996304;28;20061;-75
2021/12/14 12:41:05;;;;;;;33.72;23.58;;;6.90;95.00;;;;;;4995269;28;20053;-75
2021/12/14 12:43:36;;;;;;;33.78;25.08;;;6.90;95.00;;;;;;4996105;28;20427;-75
2021/12/14 12:46:12;;;;;;;31.63;22.60;;;6.90;95.00;;;;;;5000574;28;20403;-74
2021/12/14 12:48:54;;;;;;;33.15;23.92;;;6.90;95.00;;;;;;5003170;28;20057;-75
2021/12/14 12:51:42;;;;;;;32.05;24.02;;;6.90;95.00;;;;;;5005691;28;20055;-74
2021/12/14 12:54:13;;;;;;;32.78;23.55;;;6.90;95.00;;;;;;4999940;28;20061;-74
2021/12/14 12:56:42;;;;;;;33.03;23.52;;;6.90;95.00;;;;;;4998713;28;20058;-74
2021/12/14 12:59:10;;;;;;;34.42;24.13;;;6.90;95.00;;;;;;5003042;28;20560;-75
2021/12/14 13:01:37;;;;;;;35.20;24.33;;;6.90;95.00;;;;;;4995904;28;20046;-74
2021/12/14 13:04:04;;;;;;;35.38;24.67;;;6.90;95.00;;;;;;5000982;28;20049;-74
2021/12/14 13:06:30;;;;;;;32.92;24.20;;;6.90;95.00;;;;;;5002598;28;20059;-74
2021/12/14 13:09:00;;;;;;;34.17;24.33;;;6.90;95.00;;;;;;4999030;28;20053;-73
2021/12/14 13:11:30;;;;;;;34.60;24.20;;;6.90;95.00;;;;;;4999383;28;20569;-74
2021/12/14 13:14:02;;;;;;;33.53;23.52;;;6.90;95.00;;;;;;5003897;28;20050;-74
2021/12/14 13:16:32;;;;;;;34.83;24.02;;;6.90;95.00;;;;;;4998246;28;20065;-75
2021/12/14 13:19:01;;;;;;;31.85;23.85;;;6.90;95.00;;;;;;5002487;28;20053;-74
2021/12/14 13:21:38;;;;;;;34.53;24.40;;;6.90;95.00;;;;;;5002293;28;20137;-74